createdAt,value
2018-12-25T00:01:19.937Z,4.43
2018-12-25T00:03:49.719Z,4.00
2018-12-25T00:06:19.796Z,7.07
2018-12-25T00:08:49.474Z,3.93
2018-12-25T00:11:19.149Z,3.90
2018-12-25T00:13:48.824Z,4.17
2018-12-25T00:16:18.470Z,4.60
2018-12-25T00:18:48.123Z,3.63
2018-12-25T00:21:17.867Z,3.83
2018-12-25T00:23:47.499Z,3.90
2018-12-25T00:26:17.520Z,4.17
2018-12-25T00:28:47.197Z,3.70
2018-12-25T00:31:18.141Z,3.60
2018-12-25T00:33:47.842Z,3.67
2018-12-25T00:36:17.526Z,3.63
2018-12-25T00:38:47.178Z,3.77
2018-12-25T00:41:19.270Z,3.67
2018-12-25T00:43:48.910Z,4.53
2018-12-25T00:46:18.538Z,4.17
2018-12-25T00:48:49.399Z,3.57
2018-12-25T00:51:19.026Z,3.60
2018-12-25T00:53:48.674Z,3.90
2018-12-25T00:56:18.357Z,4.00
2018-12-25T00:58:48.018Z,4.07
2018-12-25T01:01:18.850Z,3.83
2018-12-25T01:03:48.586Z,3.90
2018-12-25T01:06:18.234Z,4.90
2018-12-25T01:08:47.946Z,5.07
2018-12-25T01:11:17.606Z,4.87
2018-12-25T01:13:47.249Z,4.37
2018-12-25T01:16:16.975Z,4.60
2018-12-25T01:18:46.639Z,4.37
2018-12-25T01:21:16.329Z,4.33
2018-12-25T01:23:46.024Z,4.67
2018-12-25T01:26:15.722Z,4.30
2018-12-25T01:28:45.394Z,4.17
2018-12-25T01:31:15.155Z,4.00
2018-12-25T01:33:44.804Z,4.23
2018-12-25T01:36:14.464Z,4.13
2018-12-25T01:38:45.374Z,5.03
2018-12-25T01:41:15.014Z,5.00
2018-12-25T01:43:44.772Z,5.47
2018-12-25T01:46:14.433Z,4.33
2018-12-25T01:48:44.088Z,5.00
2018-12-25T01:51:13.793Z,4.57
2018-12-25T01:53:43.497Z,4.90
2018-12-25T01:56:13.127Z,5.20
2018-12-25T01:58:42.853Z,5.30
2018-12-25T02:01:12.510Z,4.30
2018-12-25T02:03:42.202Z,4.00
2018-12-25T02:06:11.925Z,4.63
2018-12-25T02:08:41.755Z,4.57
2018-12-25T02:11:11.381Z,5.00
2018-12-25T02:13:41.082Z,4.73
2018-12-25T02:16:10.760Z,5.57
2018-12-25T02:18:40.527Z,5.43
2018-12-25T02:21:10.154Z,5.33
2018-12-25T02:23:39.854Z,5.30
2018-12-25T02:26:09.495Z,5.23
2018-12-25T02:28:39.191Z,5.63
2018-12-25T02:31:08.876Z,5.33
2018-12-25T02:33:38.514Z,5.17
2018-12-25T02:36:08.178Z,5.33
2018-12-25T02:38:37.895Z,6.17
2018-12-25T02:41:07.547Z,5.90
2018-12-25T02:43:37.244Z,6.00
2018-12-25T02:46:06.963Z,7.33
2018-12-25T02:48:36.641Z,6.27
2018-12-25T02:51:06.276Z,6.70
2018-12-25T02:53:35.966Z,6.00
2018-12-25T02:56:05.605Z,4.60
2018-12-25T02:58:35.311Z,5.20
2018-12-25T03:01:04.994Z,4.50
2018-12-25T03:03:34.674Z,4.33
2018-12-25T03:06:04.313Z,4.27
2018-12-25T03:08:34.001Z,4.07
2018-12-25T03:11:03.697Z,4.93
2018-12-25T03:13:33.350Z,5.00
2018-12-25T03:16:03.019Z,4.43
2018-12-25T03:18:32.656Z,4.67
2018-12-25T03:21:03.259Z,5.30
2018-12-25T03:23:33.901Z,5.00
2018-12-25T03:26:03.648Z,4.60
2018-12-25T03:28:33.302Z,5.40
2018-12-25T03:31:03.032Z,5.27
2018-12-25T03:33:32.708Z,4.60
2018-12-25T03:36:02.542Z,4.87
2018-12-25T03:38:32.185Z,5.20
2018-12-25T03:41:01.872Z,5.30
2018-12-25T03:43:31.515Z,5.37
2018-12-25T03:46:01.216Z,5.13
2018-12-25T03:48:30.909Z,4.67
2018-12-25T03:51:00.551Z,4.47
2018-12-25T03:53:30.186Z,5.07
2018-12-25T03:55:59.835Z,5.70
2018-12-25T03:58:29.523Z,4.90
2018-12-25T04:00:59.134Z,5.13
2018-12-25T04:03:28.771Z,5.40
2018-12-25T04:05:58.450Z,4.90
2018-12-25T04:08:28.138Z,4.60
2018-12-25T04:10:57.765Z,5.17
2018-12-25T04:13:27.456Z,4.60
2018-12-25T04:15:57.145Z,4.63
2018-12-25T04:18:26.774Z,4.90
2018-12-25T04:20:56.457Z,4.70
2018-12-25T04:23:26.074Z,4.13
2018-12-25T04:25:55.779Z,4.67
2018-12-25T04:28:25.443Z,5.13
2018-12-25T04:30:55.097Z,5.03
2018-12-25T04:33:24.812Z,4.30
2018-12-25T04:35:54.620Z,4.40
2018-12-25T04:38:24.252Z,3.57
2018-12-25T04:40:53.956Z,3.67
2018-12-25T04:43:23.588Z,3.53
2018-12-25T04:45:53.254Z,4.13
2018-12-25T04:48:22.932Z,4.00
2018-12-25T04:50:52.594Z,3.73
2018-12-25T04:53:22.305Z,4.70
2018-12-25T04:55:51.918Z,4.40
2018-12-25T04:58:21.602Z,4.17
2018-12-25T05:00:51.545Z,4.33
2018-12-25T05:03:21.225Z,4.00
2018-12-25T05:05:50.916Z,4.17
2018-12-25T05:08:20.605Z,4.40
2018-12-25T05:10:50.352Z,4.27
2018-12-25T05:13:19.985Z,3.90
2018-12-25T05:15:49.811Z,4.20
2018-12-25T05:18:19.427Z,3.87
2018-12-25T05:20:49.106Z,4.17
2018-12-25T05:23:18.834Z,4.50
2018-12-25T05:25:48.545Z,4.20
2018-12-25T05:28:18.267Z,4.23
2018-12-25T05:30:47.906Z,4.27
2018-12-25T05:33:17.550Z,4.30
2018-12-25T05:35:47.248Z,4.43
2018-12-25T05:38:16.894Z,4.23
2018-12-25T05:40:46.592Z,4.63
2018-12-25T05:43:16.258Z,4.37
2018-12-25T05:45:45.973Z,4.60
2018-12-25T05:48:15.609Z,4.73
2018-12-25T05:50:46.880Z,4.70
2018-12-25T05:53:14.963Z,4.70
2018-12-25T05:55:44.582Z,4.13
2018-12-25T05:58:14.214Z,4.27
2018-12-25T06:00:43.944Z,4.80
2018-12-25T06:03:13.585Z,4.50
2018-12-25T06:05:43.242Z,4.53
2018-12-25T06:08:12.946Z,5.17
2018-12-25T06:10:42.594Z,4.73
2018-12-25T06:13:12.278Z,4.87
2018-12-25T06:15:41.961Z,4.43
2018-12-25T06:18:11.633Z,4.53
2018-12-25T06:20:41.293Z,4.37
2018-12-25T06:23:10.995Z,4.67
2018-12-25T06:25:40.687Z,5.10
2018-12-25T06:34:58.014Z,4.80
2018-12-25T06:37:27.713Z,5.20
2018-12-25T06:39:57.496Z,4.60
2018-12-25T06:42:27.234Z,4.60
2018-12-25T06:44:57.005Z,4.73
2018-12-25T06:47:26.694Z,4.50
2018-12-25T06:49:56.375Z,4.63
2018-12-25T06:52:27.210Z,5.80
2018-12-25T06:54:57.195Z,4.80
2018-12-25T06:57:27.038Z,5.67
2018-12-25T06:59:56.723Z,4.87
2018-12-25T07:02:26.410Z,4.60
2018-12-25T07:04:56.145Z,4.83
2018-12-25T07:07:27.108Z,4.50
2018-12-25T07:09:56.775Z,4.73
2018-12-25T07:12:27.346Z,5.43
2018-12-25T07:14:57.056Z,5.50
2018-12-25T07:17:27.479Z,4.93
2018-12-25T07:19:57.559Z,4.97
2018-12-25T07:22:27.364Z,4.63
2018-12-25T07:24:58.333Z,5.13
2018-12-25T07:27:28.125Z,4.37
2018-12-25T07:29:57.758Z,4.53
2018-12-25T07:32:27.414Z,4.67
2018-12-25T07:34:57.122Z,4.03
2018-12-25T07:37:26.790Z,5.37
2018-12-25T07:39:56.775Z,4.47
2018-12-25T07:42:26.432Z,4.27
2018-12-25T07:44:56.101Z,4.27
2018-12-25T07:47:25.731Z,4.57
2018-12-25T07:49:55.374Z,4.20
2018-12-25T07:52:26.900Z,4.23
2018-12-25T07:54:56.077Z,4.40
2018-12-25T07:57:25.794Z,4.83
2018-12-25T07:59:56.577Z,4.60
2018-12-25T08:02:28.704Z,4.80
2018-12-25T08:04:58.819Z,4.73
2018-12-25T08:07:28.822Z,4.63
2018-12-25T08:09:58.490Z,5.17
2018-12-25T08:12:28.123Z,5.07
2018-12-25T08:14:59.090Z,5.63
2018-12-25T08:17:28.748Z,5.30
2018-12-25T08:19:58.391Z,5.53
2018-12-25T08:22:30.668Z,5.13
2018-12-25T08:25:00.458Z,5.43
2018-12-25T08:27:30.840Z,5.07
2018-12-25T08:30:00.644Z,5.83
2018-12-25T08:32:30.453Z,5.10
2018-12-25T08:35:00.178Z,5.10
2018-12-25T08:37:31.084Z,5.10
2018-12-25T08:40:00.766Z,5.90
2018-12-25T08:42:30.474Z,5.37
2018-12-25T08:45:00.195Z,5.93
2018-12-25T08:47:32.262Z,7.13
2018-12-25T08:50:03.210Z,7.77
2018-12-25T08:52:32.852Z,8.00
2018-12-25T08:55:02.565Z,8.80
2018-12-25T08:57:33.490Z,6.33
2018-12-25T09:00:08.820Z,5.33
2018-12-25T09:02:39.657Z,7.03
2018-12-25T09:05:09.316Z,6.33
2018-12-25T09:07:38.955Z,5.90
2018-12-25T09:10:09.910Z,7.10
2018-12-25T09:12:39.572Z,7.00
2018-12-25T09:15:09.223Z,6.40
2018-12-25T09:17:38.895Z,6.40
2018-12-25T09:20:08.603Z,7.17
2018-12-25T09:22:38.294Z,6.30
2018-12-25T09:25:08.006Z,6.60
2018-12-25T09:27:37.668Z,7.03
2018-12-25T09:30:07.343Z,6.20
2018-12-25T09:32:37.053Z,8.23
2018-12-25T09:35:06.727Z,8.23
2018-12-25T09:37:37.744Z,6.70
2018-12-25T09:40:07.746Z,8.43
2018-12-25T09:42:37.399Z,6.33
2018-12-25T09:45:07.084Z,7.80
2018-12-25T09:47:36.856Z,8.90
2018-12-25T09:50:06.504Z,8.47
2018-12-25T09:52:37.523Z,10.80
2018-12-25T09:55:07.168Z,8.50
2018-12-25T09:57:38.103Z,11.07
2018-12-25T10:00:08.047Z,11.73
2018-12-25T10:02:37.754Z,12.93
2018-12-25T10:05:07.494Z,9.00
2018-12-25T10:07:37.167Z,6.97
2018-12-25T10:10:08.458Z,6.33
2018-12-25T10:12:38.125Z,5.60
2018-12-25T10:15:07.771Z,7.77
2018-12-25T10:17:38.721Z,7.17
2018-12-25T10:20:08.383Z,5.57
2018-12-25T10:22:38.062Z,5.70
2018-12-25T10:25:07.712Z,7.10
2018-12-25T10:27:37.365Z,5.93
2018-12-25T10:30:07.655Z,6.00
2018-12-25T10:32:37.285Z,6.23
2018-12-25T10:35:07.003Z,7.97
2018-12-25T10:37:36.655Z,7.50
2018-12-25T10:40:07.274Z,6.53
2018-12-25T10:42:36.991Z,7.93
2018-12-25T10:45:06.682Z,7.63
2018-12-25T10:47:36.458Z,8.20
2018-12-25T10:50:07.364Z,8.93
2018-12-25T10:52:37.111Z,9.67
2018-12-25T10:55:06.750Z,8.63
2018-12-25T10:57:36.405Z,7.90
2018-12-25T11:00:10.971Z,8.03
2018-12-25T11:02:40.654Z,9.23
2018-12-25T11:05:11.570Z,8.47
2018-12-25T11:07:42.328Z,9.27
2018-12-25T11:10:11.963Z,8.97
2018-12-25T11:12:41.628Z,7.60
2018-12-25T11:15:11.327Z,9.70
2018-12-25T11:17:41.033Z,8.00
2018-12-25T11:20:11.541Z,8.67
2018-12-25T11:22:40.459Z,8.53
2018-12-25T11:25:10.166Z,9.40
2018-12-25T11:27:39.821Z,8.70
2018-12-25T11:30:09.508Z,9.37
2018-12-25T11:32:39.244Z,10.30
2018-12-25T11:35:08.962Z,11.47
2018-12-25T11:37:38.622Z,11.33
2018-12-25T11:40:08.354Z,12.60
2018-12-25T11:42:37.994Z,11.67
2018-12-25T11:45:07.706Z,11.87
2018-12-25T11:47:37.375Z,11.47
2018-12-25T11:50:07.057Z,11.07
2018-12-25T11:52:36.705Z,11.47
2018-12-25T11:55:06.374Z,10.43
2018-12-25T11:57:36.189Z,10.50
2018-12-25T12:00:07.057Z,10.70
2018-12-25T12:02:36.774Z,10.83
2018-12-25T12:05:06.528Z,9.57
2018-12-25T12:07:36.213Z,11.43
2018-12-25T12:10:07.878Z,10.33
2018-12-25T12:12:37.552Z,8.00
2018-12-25T12:15:08.734Z,8.20
2018-12-25T12:17:39.761Z,8.97
2018-12-25T12:20:09.414Z,9.83
2018-12-25T12:22:39.059Z,9.97
2018-12-25T12:25:08.798Z,8.73
2018-12-25T12:27:38.485Z,9.70
2018-12-25T12:30:08.146Z,7.73
2018-12-25T12:32:37.913Z,7.43
2018-12-25T12:35:08.735Z,8.20
2018-12-25T12:37:39.728Z,9.33
2018-12-25T12:40:09.454Z,8.80
2018-12-25T12:42:39.123Z,8.40
2018-12-25T12:45:08.849Z,7.90
2018-12-25T12:47:38.568Z,8.97
2018-12-25T12:50:09.980Z,8.50
2018-12-25T12:52:45.418Z,8.10
2018-12-25T12:55:09.317Z,9.10
2018-12-25T12:57:39.079Z,8.93
2018-12-25T13:00:09.114Z,10.70
2018-12-25T13:02:38.781Z,10.80
2018-12-25T13:05:09.945Z,12.37
2018-12-25T13:07:39.602Z,11.17
2018-12-25T13:10:09.714Z,11.67
2018-12-25T13:12:40.507Z,10.53
2018-12-25T13:15:10.174Z,11.00
2018-12-25T13:17:39.821Z,11.23
2018-12-25T13:20:09.510Z,10.67
2018-12-25T13:22:39.171Z,12.83
2018-12-25T13:25:08.871Z,13.40
2018-12-25T13:27:38.512Z,13.50
2018-12-25T13:30:10.323Z,14.60
2018-12-25T13:32:39.980Z,12.67
2018-12-25T13:35:09.627Z,13.57
2018-12-25T13:37:39.315Z,11.67
2018-12-25T13:40:08.967Z,13.83
2018-12-25T13:42:38.599Z,12.40
2018-12-25T13:45:08.547Z,13.83
2018-12-25T13:47:38.281Z,12.47
2018-12-25T13:50:09.078Z,10.43
2018-12-25T13:52:43.639Z,11.27
2018-12-25T13:55:13.274Z,12.27
2018-12-25T13:57:42.910Z,11.00
2018-12-25T14:00:12.653Z,12.37
2018-12-25T14:02:42.289Z,12.33
2018-12-25T14:05:11.979Z,10.93
2018-12-25T14:07:42.879Z,9.83
2018-12-25T14:10:12.509Z,12.17
2018-12-25T14:12:42.214Z,9.70
2018-12-25T14:15:11.937Z,8.03
2018-12-25T14:17:41.598Z,10.83
2018-12-25T14:20:11.517Z,8.13
2018-12-25T14:22:41.189Z,7.10
2018-12-25T14:25:10.861Z,7.27
2018-12-25T14:27:40.502Z,7.13
2018-12-25T14:30:10.153Z,7.33
2018-12-25T14:32:39.897Z,5.80
2018-12-25T14:35:09.528Z,5.27
2018-12-25T14:37:39.165Z,5.53
2018-12-25T14:40:08.853Z,6.10
2018-12-25T14:42:39.779Z,7.10
2018-12-25T14:45:09.448Z,6.40
2018-12-25T14:47:39.096Z,6.83
2018-12-25T14:50:08.807Z,6.27
2018-12-25T14:52:38.436Z,7.20
2018-12-25T14:55:08.058Z,7.07
2018-12-25T14:57:37.770Z,7.03
2018-12-25T15:00:08.974Z,6.50
2018-12-25T15:02:38.710Z,7.93
2018-12-25T15:05:08.629Z,6.67
2018-12-25T15:07:38.293Z,6.90
2018-12-25T15:10:09.458Z,6.60
2018-12-25T15:12:39.087Z,8.10
2018-12-25T15:15:10.410Z,7.83
2018-12-25T15:17:40.035Z,8.00
2018-12-25T15:20:09.680Z,7.50
2018-12-25T15:22:40.658Z,8.50
2018-12-25T15:25:10.385Z,7.60
2018-12-25T15:27:41.427Z,7.27
2018-12-25T15:30:11.081Z,7.03
2018-12-25T15:32:40.737Z,6.37
2018-12-25T15:35:11.390Z,7.60
2018-12-25T15:37:41.097Z,6.20
2018-12-25T15:40:10.773Z,5.73
2018-12-25T15:42:42.932Z,5.20
2018-12-25T15:45:12.643Z,4.53
2018-12-25T15:47:42.370Z,3.87
2018-12-25T15:50:13.241Z,4.10
2018-12-25T15:52:42.942Z,4.30
2018-12-25T15:55:13.135Z,4.17
2018-12-25T15:57:42.789Z,3.80
2018-12-25T16:00:15.677Z,3.37
2018-12-25T16:02:45.315Z,4.07
2018-12-25T16:05:15.046Z,4.43
2018-12-25T16:07:44.713Z,4.27
2018-12-25T16:10:14.380Z,4.37
2018-12-25T16:12:44.142Z,3.73
2018-12-25T16:15:13.845Z,4.07
2018-12-25T16:17:43.488Z,4.00
2018-12-25T16:20:13.149Z,3.67
2018-12-25T16:22:42.785Z,4.20
2018-12-25T16:25:12.426Z,4.50
2018-12-25T16:27:42.141Z,4.70
2018-12-25T16:30:11.912Z,3.90
2018-12-25T16:32:41.544Z,3.87
2018-12-25T16:35:11.167Z,4.10
2018-12-25T16:37:40.819Z,4.20
2018-12-25T16:40:10.478Z,4.57
2018-12-25T16:42:40.127Z,3.80
2018-12-25T16:45:09.810Z,3.87
2018-12-25T16:47:39.470Z,3.97
2018-12-25T16:50:09.205Z,4.20
2018-12-25T16:52:38.870Z,4.20
2018-12-25T16:55:08.553Z,4.40
2018-12-25T16:57:39.608Z,3.93
2018-12-25T17:00:09.419Z,4.87
2018-12-25T17:02:39.144Z,4.80
2018-12-25T17:05:08.974Z,4.90
2018-12-25T17:07:38.646Z,5.17
2018-12-25T17:10:09.588Z,6.27
2018-12-25T17:12:39.264Z,6.23
2018-12-25T17:15:08.922Z,5.67
2018-12-25T17:17:38.566Z,4.73
2018-12-25T17:20:10.867Z,4.27
2018-12-25T17:22:40.592Z,5.30
2018-12-25T17:25:10.595Z,4.57
2018-12-25T17:27:40.252Z,5.70
2018-12-25T17:30:09.911Z,5.07
2018-12-25T17:32:39.639Z,4.20
2018-12-25T17:35:09.310Z,4.50
2018-12-25T17:37:39.014Z,4.33
2018-12-25T17:40:08.691Z,4.17
2018-12-25T17:42:38.335Z,3.93
2018-12-25T17:45:09.283Z,4.80
2018-12-25T17:47:38.931Z,4.80
2018-12-25T17:50:08.603Z,4.33
2018-12-25T17:52:38.249Z,4.57
2018-12-25T17:55:07.882Z,4.80
2018-12-25T17:57:39.963Z,3.90
2018-12-25T18:00:09.610Z,4.20
2018-12-25T18:02:39.286Z,4.67
2018-12-25T18:05:12.056Z,5.13
2018-12-25T18:07:38.676Z,5.37
2018-12-25T18:10:08.318Z,5.47
2018-12-25T18:12:38.022Z,5.17
2018-12-25T18:15:07.670Z,5.77
2018-12-25T18:17:37.334Z,5.90
2018-12-25T18:20:07.150Z,4.67
2018-12-25T18:22:37.052Z,4.80
2018-12-25T18:25:07.904Z,5.87
2018-12-25T18:27:37.569Z,5.57
2018-12-25T18:30:07.273Z,4.20
2018-12-25T18:32:36.980Z,4.90
2018-12-25T18:35:06.707Z,4.70
2018-12-25T18:37:37.588Z,4.97
2018-12-25T18:40:07.340Z,5.17
2018-12-25T18:42:38.302Z,4.93
2018-12-25T18:45:08.089Z,4.37
2018-12-25T18:47:37.748Z,4.80
2018-12-25T18:50:08.595Z,4.03
2018-12-25T18:52:38.288Z,4.13
2018-12-25T18:55:08.021Z,6.53
2018-12-25T18:57:37.591Z,4.17
2018-12-25T19:00:09.733Z,4.63
2018-12-25T19:02:39.410Z,4.30
2018-12-25T19:05:09.078Z,4.33
2018-12-25T19:07:38.770Z,4.17
2018-12-25T19:10:09.707Z,5.20
2018-12-25T19:12:39.519Z,3.97
2018-12-25T19:15:19.702Z,4.43
2018-12-25T19:17:49.922Z,4.33
2018-12-25T19:20:19.605Z,5.20
2018-12-25T19:22:49.261Z,4.40
2018-12-25T19:25:19.160Z,4.17
2018-12-25T19:27:48.850Z,4.60
2018-12-25T19:30:20.994Z,4.63
2018-12-25T19:32:50.699Z,4.80
2018-12-25T19:35:20.377Z,5.60
2018-12-25T19:37:50.107Z,5.00
2018-12-25T19:40:20.024Z,4.57
2018-12-25T19:42:51.114Z,4.57
2018-12-25T19:45:20.802Z,5.37
2018-12-25T19:47:50.441Z,6.53
2018-12-25T19:50:24.362Z,5.30
2018-12-25T19:52:52.234Z,4.87
2018-12-25T19:55:21.897Z,4.10
2018-12-25T19:57:52.860Z,4.97
2018-12-25T20:00:22.513Z,5.60
2018-12-25T20:03:03.731Z,4.93
2018-12-25T20:05:46.190Z,5.63
2018-12-25T20:08:29.404Z,5.10
2018-12-25T20:11:14.665Z,4.03
2018-12-25T20:16:02.497Z,4.57
2018-12-25T20:18:45.249Z,3.83
2018-12-25T20:22:33.994Z,3.40
2018-12-25T20:25:24.063Z,3.73
2018-12-25T20:30:10.980Z,4.87
2018-12-25T20:32:54.213Z,3.63
2018-12-25T20:35:44.300Z,4.93
2018-12-25T20:38:35.528Z,5.00
2018-12-25T20:41:25.601Z,3.93
2018-12-25T20:46:12.167Z,4.23
2018-12-25T20:48:53.206Z,6.07
2018-12-25T20:51:34.321Z,4.93
2018-12-25T20:54:31.339Z,7.23
2018-12-25T20:59:20.044Z,5.47
2018-12-25T21:02:01.998Z,5.87
2018-12-25T21:04:42.807Z,5.40
2018-12-25T21:07:27.341Z,5.80
2018-12-25T21:10:11.459Z,4.87
2018-12-25T21:15:03.256Z,4.40
2018-12-25T21:20:50.370Z,4.90
2018-12-25T21:23:31.409Z,5.67
2018-12-25T21:26:12.559Z,4.53
2018-12-25T21:28:42.617Z,4.90
2018-12-25T21:31:12.299Z,5.67
2018-12-25T21:33:44.808Z,5.23
2018-12-25T21:36:14.737Z,4.63
2018-12-25T21:38:46.937Z,4.57
2018-12-25T21:41:16.669Z,3.63
2018-12-25T21:43:47.347Z,4.10
2018-12-25T21:46:17.035Z,4.87
2018-12-25T21:48:46.785Z,4.27
2018-12-25T21:51:16.491Z,4.33
2018-12-25T21:53:46.536Z,4.37
2018-12-25T21:56:17.537Z,4.83
2018-12-25T21:58:47.235Z,4.10
2018-12-25T22:01:17.179Z,4.27
2018-12-25T22:03:46.930Z,3.97
2018-12-25T22:06:16.646Z,4.03
2018-12-25T22:08:46.400Z,4.00
2018-12-25T22:11:16.146Z,3.40
2018-12-25T22:13:46.165Z,3.70
2018-12-25T22:16:15.900Z,3.60
2018-12-25T22:18:45.602Z,3.63
2018-12-25T22:21:15.268Z,3.73
2018-12-25T22:23:46.249Z,4.17
2018-12-25T22:26:18.122Z,3.63
2018-12-25T22:28:47.925Z,3.90
2018-12-25T22:31:17.701Z,4.40
2018-12-25T22:33:49.907Z,3.90
2018-12-25T22:36:19.581Z,3.87
2018-12-25T22:38:49.254Z,4.80
2018-12-25T22:41:18.942Z,3.63
2018-12-25T22:43:51.095Z,3.80
2018-12-25T22:46:20.758Z,4.07
2018-12-25T22:48:50.512Z,4.47
2018-12-25T22:51:20.176Z,5.17
2018-12-25T22:53:49.887Z,4.50
2018-12-25T22:56:20.834Z,4.20
2018-12-25T22:58:50.478Z,3.70
2018-12-25T23:01:20.510Z,3.37
2018-12-25T23:03:50.245Z,3.60
2018-12-25T23:06:19.896Z,4.73
2018-12-25T23:08:50.808Z,3.20
2018-12-25T23:11:20.550Z,3.00
2018-12-25T23:13:50.238Z,3.00
2018-12-25T23:16:20.018Z,3.60
2018-12-25T23:18:49.749Z,3.60
2018-12-25T23:21:19.457Z,3.17
2018-12-25T23:23:49.117Z,3.07
2018-12-25T23:26:18.784Z,3.47
2018-12-25T23:28:48.468Z,3.77
2018-12-25T23:31:18.171Z,2.80
2018-12-25T23:33:49.093Z,3.40
2018-12-25T23:36:18.809Z,4.30
2018-12-25T23:38:48.501Z,3.60
2018-12-25T23:41:18.209Z,3.13
2018-12-25T23:43:47.880Z,3.03
2018-12-25T23:46:17.529Z,3.07
2018-12-25T23:48:47.237Z,3.50
2018-12-25T23:51:16.912Z,3.10
2018-12-25T23:53:46.630Z,3.03
2018-12-25T23:56:16.257Z,3.33
2018-12-25T23:58:45.950Z,3.63
